sensor_id;sensor_type;location;lat;lon;timestamp;temperature;humidity
43143;DHT22;28750;59.842;17.584;2022-07-23T00:01:25;13.50;99.90
43143;DHT22;28750;59.842;17.584;2022-07-23T00:03:54;13.60;99.90
43143;DHT22;28750;59.842;17.584;2022-07-23T00:06:22;13.60;99.90
43143;DHT22;28750;59.842;17.584;2022-07-23T00:08:50;13.60;99.90
43143;DHT22;28750;59.842;17.584;2022-07-23T00:11:17;13.60;99.90
43143;DHT22;28750;59.842;17.584;2022-07-23T00:13:44;13.60;99.90
43143;DHT22;28750;59.842;17.584;2022-07-23T00:16:11;13.60;99.90
43143;DHT22;28750;59.842;17.584;2022-07-23T00:18:38;13.60;99.90
43143;DHT22;28750;59.842;17.584;2022-07-23T00:21:05;13.60;99.90
43143;DHT22;28750;59.842;17.584;2022-07-23T00:23:32;13.60;99.90
43143;DHT22;28750;59.842;17.584;2022-07-23T00:25:59;13.60;99.90
43143;DHT22;28750;59.842;17.584;2022-07-23T00:28:25;13.60;99.90
43143;DHT22;28750;59.842;17.584;2022-07-23T00:30:52;13.60;99.90
43143;DHT22;28750;59.842;17.584;2022-07-23T00:33:19;13.70;99.90
43143;DHT22;28750;59.842;17.584;2022-07-23T00:35:46;13.70;99.90
43143;DHT22;28750;59.842;17.584;2022-07-23T00:38:13;13.70;99.90
43143;DHT22;28750;59.842;17.584;2022-07-23T00:40:40;13.70;99.90
43143;DHT22;28750;59.842;17.584;2022-07-23T00:43:07;13.60;99.90
43143;DHT22;28750;59.842;17.584;2022-07-23T00:45:35;13.60;99.90
43143;DHT22;28750;59.842;17.584;2022-07-23T00:48:02;13.60;99.90
43143;DHT22;28750;59.842;17.584;2022-07-23T00:50:29;13.70;99.90
43143;DHT22;28750;59.842;17.584;2022-07-23T00:52:57;13.70;99.90
43143;DHT22;28750;59.842;17.584;2022-07-23T00:55:24;13.60;99.90
43143;DHT22;28750;59.842;17.584;2022-07-23T00:57:52;13.70;99.90
43143;DHT22;28750;59.842;17.584;2022-07-23T01:00:19;13.70;99.90
43143;DHT22;28750;59.842;17.584;2022-07-23T01:02:47;13.70;99.90
43143;DHT22;28750;59.842;17.584;2022-07-23T01:05:14;13.70;99.90
43143;DHT22;28750;59.842;17.584;2022-07-23T01:07:42;13.70;99.90
43143;DHT22;28750;59.842;17.584;2022-07-23T01:10:11;13.70;99.90
43143;DHT22;28750;59.842;17.584;2022-07-23T01:12:56;13.70;99.90
43143;DHT22;28750;59.842;17.584;2022-07-23T01:15:24;13.70;99.90
43143;DHT22;28750;59.842;17.584;2022-07-23T01:17:51;13.70;99.90
43143;DHT22;28750;59.842;17.584;2022-07-23T01:20:18;13.80;99.90
43143;DHT22;28750;59.842;17.584;2022-07-23T01:22:45;13.70;99.90
43143;DHT22;28750;59.842;17.584;2022-07-23T01:25:13;13.70;99.90
43143;DHT22;28750;59.842;17.584;2022-07-23T01:27:40;13.80;99.90
43143;DHT22;28750;59.842;17.584;2022-07-23T01:30:08;13.80;99.90
43143;DHT22;28750;59.842;17.584;2022-07-23T01:32:36;13.80;99.90
43143;DHT22;28750;59.842;17.584;2022-07-23T01:35:04;13.80;99.90
43143;DHT22;28750;59.842;17.584;2022-07-23T01:37:31;13.80;99.90
43143;DHT22;28750;59.842;17.584;2022-07-23T01:39:58;13.80;99.90
43143;DHT22;28750;59.842;17.584;2022-07-23T01:42:25;13.80;99.90
43143;DHT22;28750;59.842;17.584;2022-07-23T01:44:52;13.80;99.90
43143;DHT22;28750;59.842;17.584;2022-07-23T01:47:19;13.80;99.90
43143;DHT22;28750;59.842;17.584;2022-07-23T01:49:46;13.80;99.90
43143;DHT22;28750;59.842;17.584;2022-07-23T01:52:13;13.80;99.90
43143;DHT22;28750;59.842;17.584;2022-07-23T01:54:40;13.80;99.90
43143;DHT22;28750;59.842;17.584;2022-07-23T01:57:08;13.80;99.90
43143;DHT22;28750;59.842;17.584;2022-07-23T01:59:35;13.80;99.90
43143;DHT22;28750;59.842;17.584;2022-07-23T02:02:04;13.80;99.90
43143;DHT22;28750;59.842;17.584;2022-07-23T02:04:32;13.80;99.90
43143;DHT22;28750;59.842;17.584;2022-07-23T02:07:02;13.80;99.90
43143;DHT22;28750;59.842;17.584;2022-07-23T02:09:29;13.80;99.90
43143;DHT22;28750;59.842;17.584;2022-07-23T02:11:56;13.80;99.90
43143;DHT22;28750;59.842;17.584;2022-07-23T02:14:25;13.80;99.90
43143;DHT22;28750;59.842;17.584;2022-07-23T02:16:52;13.90;99.90
43143;DHT22;28750;59.842;17.584;2022-07-23T02:19:19;13.80;99.90
43143;DHT22;28750;59.842;17.584;2022-07-23T02:21:46;13.90;99.90
43143;DHT22;28750;59.842;17.584;2022-07-23T02:24:13;13.80;99.90
43143;DHT22;28750;59.842;17.584;2022-07-23T02:26:40;13.80;99.90
43143;DHT22;28750;59.842;17.584;2022-07-23T02:29:07;13.80;99.90
43143;DHT22;28750;59.842;17.584;2022-07-23T02:31:34;13.80;99.90
43143;DHT22;28750;59.842;17.584;2022-07-23T02:34:02;13.80;99.90
43143;DHT22;28750;59.842;17.584;2022-07-23T02:36:29;13.90;99.90
43143;DHT22;28750;59.842;17.584;2022-07-23T02:38:56;13.80;99.90
43143;DHT22;28750;59.842;17.584;2022-07-23T02:41:23;13.80;99.90
43143;DHT22;28750;59.842;17.584;2022-07-23T02:43:50;13.80;99.90
43143;DHT22;28750;59.842;17.584;2022-07-23T02:46:17;13.90;99.90
43143;DHT22;28750;59.842;17.584;2022-07-23T02:48:44;13.90;99.90
43143;DHT22;28750;59.842;17.584;2022-07-23T02:51:11;13.90;99.90
43143;DHT22;28750;59.842;17.584;2022-07-23T02:53:38;13.90;99.90
43143;DHT22;28750;59.842;17.584;2022-07-23T02:56:05;13.90;99.90
43143;DHT22;28750;59.842;17.584;2022-07-23T02:58:32;13.90;99.90
43143;DHT22;28750;59.842;17.584;2022-07-23T03:00:59;13.90;99.90
43143;DHT22;28750;59.842;17.584;2022-07-23T03:03:26;14.00;99.90
43143;DHT22;28750;59.842;17.584;2022-07-23T03:05:53;13.90;99.90
43143;DHT22;28750;59.842;17.584;2022-07-23T03:08:19;14.00;99.90
43143;DHT22;28750;59.842;17.584;2022-07-23T03:10:46;13.90;99.90
43143;DHT22;28750;59.842;17.584;2022-07-23T03:13:13;13.90;99.90
43143;DHT22;28750;59.842;17.584;2022-07-23T03:15:40;14.00;99.90
43143;DHT22;28750;59.842;17.584;2022-07-23T03:18:07;13.90;99.90
43143;DHT22;28750;59.842;17.584;2022-07-23T03:20:34;14.00;99.90
43143;DHT22;28750;59.842;17.584;2022-07-23T03:23:02;14.00;99.90
43143;DHT22;28750;59.842;17.584;2022-07-23T03:25:29;13.90;99.90
43143;DHT22;28750;59.842;17.584;2022-07-23T03:27:56;13.90;99.90
43143;DHT22;28750;59.842;17.584;2022-07-23T03:30:23;14.00;99.90
43143;DHT22;28750;59.842;17.584;2022-07-23T03:32:50;14.00;99.90
43143;DHT22;28750;59.842;17.584;2022-07-23T03:35:17;14.00;99.90
43143;DHT22;28750;59.842;17.584;2022-07-23T03:37:43;14.00;99.90
43143;DHT22;28750;59.842;17.584;2022-07-23T03:40:11;14.00;99.90
43143;DHT22;28750;59.842;17.584;2022-07-23T03:42:38;14.00;99.90
43143;DHT22;28750;59.842;17.584;2022-07-23T03:45:07;14.00;99.90
43143;DHT22;28750;59.842;17.584;2022-07-23T03:47:34;14.00;99.90
43143;DHT22;28750;59.842;17.584;2022-07-23T03:50:01;14.00;99.90
43143;DHT22;28750;59.842;17.584;2022-07-23T03:52:28;14.00;99.90
43143;DHT22;28750;59.842;17.584;2022-07-23T03:54:55;14.10;99.90
43143;DHT22;28750;59.842;17.584;2022-07-23T03:57:22;14.00;99.90
43143;DHT22;28750;59.842;17.584;2022-07-23T03:59:49;14.00;99.90
43143;DHT22;28750;59.842;17.584;2022-07-23T04:02:16;14.00;99.90
43143;DHT22;28750;59.842;17.584;2022-07-23T04:04:43;14.00;99.90
43143;DHT22;28750;59.842;17.584;2022-07-23T04:07:10;14.10;99.90
43143;DHT22;28750;59.842;17.584;2022-07-23T04:09:37;14.10;99.90
43143;DHT22;28750;59.842;17.584;2022-07-23T04:12:07;14.10;99.90
43143;DHT22;28750;59.842;17.584;2022-07-23T04:14:34;14.00;99.90
43143;DHT22;28750;59.842;17.584;2022-07-23T04:17:02;14.10;99.90
43143;DHT22;28750;59.842;17.584;2022-07-23T04:19:29;14.10;99.90
43143;DHT22;28750;59.842;17.584;2022-07-23T04:21:57;14.10;99.90
43143;DHT22;28750;59.842;17.584;2022-07-23T04:24:24;14.10;99.90
43143;DHT22;28750;59.842;17.584;2022-07-23T04:26:51;14.10;99.90
43143;DHT22;28750;59.842;17.584;2022-07-23T04:29:18;14.10;99.90
43143;DHT22;28750;59.842;17.584;2022-07-23T04:31:45;14.10;99.90
43143;DHT22;28750;59.842;17.584;2022-07-23T04:34:12;14.20;99.90
43143;DHT22;28750;59.842;17.584;2022-07-23T04:36:39;14.20;99.90
43143;DHT22;28750;59.842;17.584;2022-07-23T04:39:06;14.10;99.90
43143;DHT22;28750;59.842;17.584;2022-07-23T04:41:33;14.00;99.90
43143;DHT22;28750;59.842;17.584;2022-07-23T04:44:01;14.10;99.90
43143;DHT22;28750;59.842;17.584;2022-07-23T04:46:28;14.10;99.90
43143;DHT22;28750;59.842;17.584;2022-07-23T04:48:55;14.20;99.90
43143;DHT22;28750;59.842;17.584;2022-07-23T04:51:22;14.20;99.90
43143;DHT22;28750;59.842;17.584;2022-07-23T04:53:49;14.20;99.90
43143;DHT22;28750;59.842;17.584;2022-07-23T04:56:16;14.10;99.90
43143;DHT22;28750;59.842;17.584;2022-07-23T04:58:43;14.10;99.90
43143;DHT22;28750;59.842;17.584;2022-07-23T05:01:10;14.20;99.90
43143;DHT22;28750;59.842;17.584;2022-07-23T05:03:37;14.30;99.90
43143;DHT22;28750;59.842;17.584;2022-07-23T05:06:04;14.30;99.90
43143;DHT22;28750;59.842;17.584;2022-07-23T05:08:31;14.30;99.90
43143;DHT22;28750;59.842;17.584;2022-07-23T05:10:58;14.40;99.90
43143;DHT22;28750;59.842;17.584;2022-07-23T05:13:25;14.40;99.90
43143;DHT22;28750;59.842;17.584;2022-07-23T05:15:52;14.40;99.90
43143;DHT22;28750;59.842;17.584;2022-07-23T05:18:19;14.40;99.90
43143;DHT22;28750;59.842;17.584;2022-07-23T05:20:46;14.40;99.90
43143;DHT22;28750;59.842;17.584;2022-07-23T05:23:13;14.40;99.90
43143;DHT22;28750;59.842;17.584;2022-07-23T05:25:40;14.40;99.90
43143;DHT22;28750;59.842;17.584;2022-07-23T05:28:07;14.40;99.90
43143;DHT22;28750;59.842;17.584;2022-07-23T05:30:34;14.50;99.90
43143;DHT22;28750;59.842;17.584;2022-07-23T05:33:01;14.50;99.90
43143;DHT22;28750;59.842;17.584;2022-07-23T05:35:28;14.50;99.90
43143;DHT22;28750;59.842;17.584;2022-07-23T05:37:55;14.60;99.90
43143;DHT22;28750;59.842;17.584;2022-07-23T05:40:22;14.50;99.90
43143;DHT22;28750;59.842;17.584;2022-07-23T05:42:48;14.60;99.90
43143;DHT22;28750;59.842;17.584;2022-07-23T05:45:15;14.60;99.90
43143;DHT22;28750;59.842;17.584;2022-07-23T05:47:46;14.60;99.90
43143;DHT22;28750;59.842;17.584;2022-07-23T05:50:14;14.60;99.90
43143;DHT22;28750;59.842;17.584;2022-07-23T05:52:42;14.70;99.90
43143;DHT22;28750;59.842;17.584;2022-07-23T05:55:11;14.70;99.90
43143;DHT22;28750;59.842;17.584;2022-07-23T05:57:38;14.70;99.90
43143;DHT22;28750;59.842;17.584;2022-07-23T06:00:07;14.80;99.90
43143;DHT22;28750;59.842;17.584;2022-07-23T06:02:34;14.70;99.90
43143;DHT22;28750;59.842;17.584;2022-07-23T06:05:01;14.80;99.90
43143;DHT22;28750;59.842;17.584;2022-07-23T06:07:28;14.80;99.90
43143;DHT22;28750;59.842;17.584;2022-07-23T06:09:55;14.80;99.90
43143;DHT22;28750;59.842;17.584;2022-07-23T06:12:22;14.80;99.90
43143;DHT22;28750;59.842;17.584;2022-07-23T06:14:49;14.90;99.90
43143;DHT22;28750;59.842;17.584;2022-07-23T06:17:18;14.90;99.90
43143;DHT22;28750;59.842;17.584;2022-07-23T06:19:45;14.90;99.90
43143;DHT22;28750;59.842;17.584;2022-07-23T06:22:12;15.10;99.90
43143;DHT22;28750;59.842;17.584;2022-07-23T06:24:39;15.20;99.90
43143;DHT22;28750;59.842;17.584;2022-07-23T06:27:06;15.10;99.90
43143;DHT22;28750;59.842;17.584;2022-07-23T06:29:32;15.00;99.90
43143;DHT22;28750;59.842;17.584;2022-07-23T06:31:59;15.00;99.90
43143;DHT22;28750;59.842;17.584;2022-07-23T06:34:26;15.00;99.90
43143;DHT22;28750;59.842;17.584;2022-07-23T06:36:53;15.00;99.90
43143;DHT22;28750;59.842;17.584;2022-07-23T06:39:20;15.00;99.90
43143;DHT22;28750;59.842;17.584;2022-07-23T06:41:47;15.00;99.90
43143;DHT22;28750;59.842;17.584;2022-07-23T06:44:14;14.90;99.90
43143;DHT22;28750;59.842;17.584;2022-07-23T06:46:41;14.90;99.90
43143;DHT22;28750;59.842;17.584;2022-07-23T06:49:08;15.00;99.90
43143;DHT22;28750;59.842;17.584;2022-07-23T06:51:35;15.00;99.90
43143;DHT22;28750;59.842;17.584;2022-07-23T06:54:03;15.00;99.90
43143;DHT22;28750;59.842;17.584;2022-07-23T06:56:30;15.20;99.90
43143;DHT22;28750;59.842;17.584;2022-07-23T06:58:57;15.30;99.90
43143;DHT22;28750;59.842;17.584;2022-07-23T07:01:24;15.40;99.90
43143;DHT22;28750;59.842;17.584;2022-07-23T07:03:51;15.50;99.90
43143;DHT22;28750;59.842;17.584;2022-07-23T07:06:18;15.40;99.90
43143;DHT22;28750;59.842;17.584;2022-07-23T07:08:45;15.40;99.90
43143;DHT22;28750;59.842;17.584;2022-07-23T07:11:12;15.40;99.90
43143;DHT22;28750;59.842;17.584;2022-07-23T07:13:39;15.40;99.90
43143;DHT22;28750;59.842;17.584;2022-07-23T07:16:06;15.40;99.90
43143;DHT22;28750;59.842;17.584;2022-07-23T07:18:33;15.50;99.90
43143;DHT22;28750;59.842;17.584;2022-07-23T07:20:59;15.50;99.90
43143;DHT22;28750;59.842;17.584;2022-07-23T07:23:26;15.40;99.90
43143;DHT22;28750;59.842;17.584;2022-07-23T07:25:53;15.50;99.90
43143;DHT22;28750;59.842;17.584;2022-07-23T07:28:20;15.50;99.90
43143;DHT22;28750;59.842;17.584;2022-07-23T07:30:47;15.60;99.90
43143;DHT22;28750;59.842;17.584;2022-07-23T07:33:14;15.60;99.90
43143;DHT22;28750;59.842;17.584;2022-07-23T07:35:41;15.70;99.90
43143;DHT22;28750;59.842;17.584;2022-07-23T07:38:08;15.60;99.90
43143;DHT22;28750;59.842;17.584;2022-07-23T07:40:35;15.60;99.90
43143;DHT22;28750;59.842;17.584;2022-07-23T07:43:02;15.60;99.90
43143;DHT22;28750;59.842;17.584;2022-07-23T07:45:29;15.80;99.90
43143;DHT22;28750;59.842;17.584;2022-07-23T07:47:56;16.00;99.90
43143;DHT22;28750;59.842;17.584;2022-07-23T07:50:24;15.90;99.90
43143;DHT22;28750;59.842;17.584;2022-07-23T07:52:51;15.70;99.90
43143;DHT22;28750;59.842;17.584;2022-07-23T07:55:18;15.70;99.90
43143;DHT22;28750;59.842;17.584;2022-07-23T07:57:45;15.60;99.90
43143;DHT22;28750;59.842;17.584;2022-07-23T08:00:12;15.80;99.90
43143;DHT22;28750;59.842;17.584;2022-07-23T08:02:51;15.90;99.90
43143;DHT22;28750;59.842;17.584;2022-07-23T08:05:27;16.10;99.90
43143;DHT22;28750;59.842;17.584;2022-07-23T08:07:55;16.10;99.90
43143;DHT22;28750;59.842;17.584;2022-07-23T08:10:23;16.20;99.90
43143;DHT22;28750;59.842;17.584;2022-07-23T08:12:54;16.10;99.90
43143;DHT22;28750;59.842;17.584;2022-07-23T08:15:22;16.00;99.90
43143;DHT22;28750;59.842;17.584;2022-07-23T08:17:50;16.10;99.90
43143;DHT22;28750;59.842;17.584;2022-07-23T08:20:20;15.90;99.90
43143;DHT22;28750;59.842;17.584;2022-07-23T08:22:53;16.10;99.90
43143;DHT22;28750;59.842;17.584;2022-07-23T08:27:53;16.00;99.90
43143;DHT22;28750;59.842;17.584;2022-07-23T08:30:21;16.00;99.90
43143;DHT22;28750;59.842;17.584;2022-07-23T08:32:55;15.90;99.90
43143;DHT22;28750;59.842;17.584;2022-07-23T08:35:43;16.00;99.90
43143;DHT22;28750;59.842;17.584;2022-07-23T08:38:14;16.10;99.90
43143;DHT22;28750;59.842;17.584;2022-07-23T08:40:49;16.00;99.90
43143;DHT22;28750;59.842;17.584;2022-07-23T08:43:22;16.10;99.90
43143;DHT22;28750;59.842;17.584;2022-07-23T08:45:51;16.20;99.90
43143;DHT22;28750;59.842;17.584;2022-07-23T08:48:20;16.40;99.90
43143;DHT22;28750;59.842;17.584;2022-07-23T08:50:53;16.50;99.90
43143;DHT22;28750;59.842;17.584;2022-07-23T08:53:22;16.40;99.90
43143;DHT22;28750;59.842;17.584;2022-07-23T08:55:53;16.10;99.90
43143;DHT22;28750;59.842;17.584;2022-07-23T08:58:21;16.10;99.90
43143;DHT22;28750;59.842;17.584;2022-07-23T09:00:48;16.00;99.90
43143;DHT22;28750;59.842;17.584;2022-07-23T09:03:21;15.90;99.90
43143;DHT22;28750;59.842;17.584;2022-07-23T09:05:53;16.00;99.90
43143;DHT22;28750;59.842;17.584;2022-07-23T09:08:23;16.00;99.90
43143;DHT22;28750;59.842;17.584;2022-07-23T09:10:55;16.00;99.90
43143;DHT22;28750;59.842;17.584;2022-07-23T09:13:33;16.00;99.90
43143;DHT22;28750;59.842;17.584;2022-07-23T09:16:09;16.00;99.90
43143;DHT22;28750;59.842;17.584;2022-07-23T09:18:42;15.90;99.90
43143;DHT22;28750;59.842;17.584;2022-07-23T09:21:31;15.80;99.90
43143;DHT22;28750;59.842;17.584;2022-07-23T09:24:13;15.80;99.90
43143;DHT22;28750;59.842;17.584;2022-07-23T09:26:46;15.80;99.90
43143;DHT22;28750;59.842;17.584;2022-07-23T09:31:54;15.90;99.90
43143;DHT22;28750;59.842;17.584;2022-07-23T09:34:30;15.90;99.90
43143;DHT22;28750;59.842;17.584;2022-07-23T09:37:19;16.00;99.90
43143;DHT22;28750;59.842;17.584;2022-07-23T09:39:47;16.00;99.90
43143;DHT22;28750;59.842;17.584;2022-07-23T09:42:19;16.00;99.90
43143;DHT22;28750;59.842;17.584;2022-07-23T09:44:58;16.00;99.90
43143;DHT22;28750;59.842;17.584;2022-07-23T09:47:28;16.00;99.90
43143;DHT22;28750;59.842;17.584;2022-07-23T09:49:59;16.10;99.90
43143;DHT22;28750;59.842;17.584;2022-07-23T09:52:29;16.20;99.90
43143;DHT22;28750;59.842;17.584;2022-07-23T09:55:01;16.50;99.90
43143;DHT22;28750;59.842;17.584;2022-07-23T09:57:29;16.40;99.90
43143;DHT22;28750;59.842;17.584;2022-07-23T10:00:00;16.50;99.90
43143;DHT22;28750;59.842;17.584;2022-07-23T10:02:28;16.50;99.90
43143;DHT22;28750;59.842;17.584;2022-07-23T10:04:58;16.30;99.90
43143;DHT22;28750;59.842;17.584;2022-07-23T10:07:27;16.30;99.90
43143;DHT22;28750;59.842;17.584;2022-07-23T10:09:55;16.40;99.90
43143;DHT22;28750;59.842;17.584;2022-07-23T10:12:24;16.30;99.90
43143;DHT22;28750;59.842;17.584;2022-07-23T10:15:06;16.20;99.90
43143;DHT22;28750;59.842;17.584;2022-07-23T10:17:35;16.30;99.90
43143;DHT22;28750;59.842;17.584;2022-07-23T10:20:03;16.30;99.90
43143;DHT22;28750;59.842;17.584;2022-07-23T10:22:40;16.40;99.90
43143;DHT22;28750;59.842;17.584;2022-07-23T10:25:25;16.40;99.90
43143;DHT22;28750;59.842;17.584;2022-07-23T10:31:35;16.30;99.90
43143;DHT22;28750;59.842;17.584;2022-07-23T10:34:21;16.20;99.90
43143;DHT22;28750;59.842;17.584;2022-07-23T10:37:32;16.40;99.90
43143;DHT22;28750;59.842;17.584;2022-07-23T10:40:14;16.60;99.90
43143;DHT22;28750;59.842;17.584;2022-07-23T10:42:44;16.60;99.90
43143;DHT22;28750;59.842;17.584;2022-07-23T10:45:43;16.60;99.90
43143;DHT22;28750;59.842;17.584;2022-07-23T10:48:22;16.70;99.90
43143;DHT22;28750;59.842;17.584;2022-07-23T10:57:03;16.50;99.90
43143;DHT22;28750;59.842;17.584;2022-07-23T11:02:30;16.60;99.90
43143;DHT22;28750;59.842;17.584;2022-07-23T11:05:12;16.60;99.90
43143;DHT22;28750;59.842;17.584;2022-07-23T11:10:37;16.70;99.90
43143;DHT22;28750;59.842;17.584;2022-07-23T11:26:52;16.60;99.90
43143;DHT22;28750;59.842;17.584;2022-07-23T11:34:46;16.70;99.90
43143;DHT22;28750;59.842;17.584;2022-07-23T11:37:32;16.40;99.90
43143;DHT22;28750;59.842;17.584;2022-07-23T11:40:03;16.60;99.90
43143;DHT22;28750;59.842;17.584;2022-07-23T11:42:30;16.70;99.90
43143;DHT22;28750;59.842;17.584;2022-07-23T11:44:58;16.90;99.90
43143;DHT22;28750;59.842;17.584;2022-07-23T11:47:26;17.00;99.90
43143;DHT22;28750;59.842;17.584;2022-07-23T11:49:58;17.20;99.90
43143;DHT22;28750;59.842;17.584;2022-07-23T11:52:27;17.20;99.90
43143;DHT22;28750;59.842;17.584;2022-07-23T11:54:58;17.30;99.90
43143;DHT22;28750;59.842;17.584;2022-07-23T11:57:31;17.40;99.90
43143;DHT22;28750;59.842;17.584;2022-07-23T12:00:15;17.20;99.90
43143;DHT22;28750;59.842;17.584;2022-07-23T12:02:50;17.20;99.90
43143;DHT22;28750;59.842;17.584;2022-07-23T12:05:18;17.00;99.90
43143;DHT22;28750;59.842;17.584;2022-07-23T12:07:47;17.10;99.90
43143;DHT22;28750;59.842;17.584;2022-07-23T12:10:43;17.10;93.90
43143;DHT22;28750;59.842;17.584;2022-07-23T12:13:17;17.30;96.50
43143;DHT22;28750;59.842;17.584;2022-07-23T12:15:47;17.20;60.70
43143;DHT22;28750;59.842;17.584;2022-07-23T12:18:22;17.30;29.20
43143;DHT22;28750;59.842;17.584;2022-07-23T12:21:03;17.40;7.20
43143;DHT22;28750;59.842;17.584;2022-07-23T12:23:32;17.60;57.10
43143;DHT22;28750;59.842;17.584;2022-07-23T12:26:02;18.00;1.00
43143;DHT22;28750;59.842;17.584;2022-07-23T12:28:31;18.20;1.00
43143;DHT22;28750;59.842;17.584;2022-07-23T12:30:59;18.20;1.00
43143;DHT22;28750;59.842;17.584;2022-07-23T12:33:29;18.20;1.00
43143;DHT22;28750;59.842;17.584;2022-07-23T12:36:02;18.10;1.00
43143;DHT22;28750;59.842;17.584;2022-07-23T12:38:41;17.90;1.00
43143;DHT22;28750;59.842;17.584;2022-07-23T12:41:09;17.90;1.00
43143;DHT22;28750;59.842;17.584;2022-07-23T12:43:37;17.90;1.00
43143;DHT22;28750;59.842;17.584;2022-07-23T12:46:08;18.00;1.00
43143;DHT22;28750;59.842;17.584;2022-07-23T12:51:19;17.60;1.00
43143;DHT22;28750;59.842;17.584;2022-07-23T12:53:58;17.50;1.00
43143;DHT22;28750;59.842;17.584;2022-07-23T12:56:31;17.30;1.00
43143;DHT22;28750;59.842;17.584;2022-07-23T12:59:07;17.40;1.00
43143;DHT22;28750;59.842;17.584;2022-07-23T13:01:43;17.30;1.00
43143;DHT22;28750;59.842;17.584;2022-07-23T13:04:17;17.50;1.00
43143;DHT22;28750;59.842;17.584;2022-07-23T13:06:50;17.70;1.00
43143;DHT22;28750;59.842;17.584;2022-07-23T13:09:19;18.00;1.00
43143;DHT22;28750;59.842;17.584;2022-07-23T13:11:48;18.20;1.00
43143;DHT22;28750;59.842;17.584;2022-07-23T13:14:17;18.30;1.00
43143;DHT22;28750;59.842;17.584;2022-07-23T13:16:45;18.40;1.00
43143;DHT22;28750;59.842;17.584;2022-07-23T13:19:12;18.20;99.90
43143;DHT22;28750;59.842;17.584;2022-07-23T13:21:40;18.20;99.90
43143;DHT22;28750;59.842;17.584;2022-07-23T13:24:10;18.50;1.00
43143;DHT22;28750;59.842;17.584;2022-07-23T13:26:44;18.90;99.90
43143;DHT22;28750;59.842;17.584;2022-07-23T13:29:19;19.30;99.90
43143;DHT22;28750;59.842;17.584;2022-07-23T13:31:52;19.70;99.90
43143;DHT22;28750;59.842;17.584;2022-07-23T13:34:27;19.60;99.90
43143;DHT22;28750;59.842;17.584;2022-07-23T13:36:58;19.30;99.90
43143;DHT22;28750;59.842;17.584;2022-07-23T13:39:32;18.90;99.90
43143;DHT22;28750;59.842;17.584;2022-07-23T13:42:06;18.90;99.90
43143;DHT22;28750;59.842;17.584;2022-07-23T13:44:40;18.80;99.90
43143;DHT22;28750;59.842;17.584;2022-07-23T13:47:13;18.80;39.50
43143;DHT22;28750;59.842;17.584;2022-07-23T13:49:45;19.20;68.90
43143;DHT22;28750;59.842;17.584;2022-07-23T13:52:20;19.10;99.90
43143;DHT22;28750;59.842;17.584;2022-07-23T13:54:54;18.80;1.00
43143;DHT22;28750;59.842;17.584;2022-07-23T13:57:26;18.60;99.90
43143;DHT22;28750;59.842;17.584;2022-07-23T14:00:01;18.60;99.90
43143;DHT22;28750;59.842;17.584;2022-07-23T14:02:38;18.50;99.90
43143;DHT22;28750;59.842;17.584;2022-07-23T14:05:14;18.50;99.90
43143;DHT22;28750;59.842;17.584;2022-07-23T14:08:01;18.50;98.40
43143;DHT22;28750;59.842;17.584;2022-07-23T14:10:41;18.30;99.90
43143;DHT22;28750;59.842;17.584;2022-07-23T14:13:14;18.30;91.00
43143;DHT22;28750;59.842;17.584;2022-07-23T14:15:50;18.40;99.90
43143;DHT22;28750;59.842;17.584;2022-07-23T14:18:24;18.50;99.90
43143;DHT22;28750;59.842;17.584;2022-07-23T14:20:56;18.60;99.90
43143;DHT22;28750;59.842;17.584;2022-07-23T14:23:27;18.60;99.70
43143;DHT22;28750;59.842;17.584;2022-07-23T14:26:03;18.60;15.20
43143;DHT22;28750;59.842;17.584;2022-07-23T14:28:37;18.50;40.90
43143;DHT22;28750;59.842;17.584;2022-07-23T14:31:09;18.40;1.00
43143;DHT22;28750;59.842;17.584;2022-07-23T14:33:36;18.40;1.00
43143;DHT22;28750;59.842;17.584;2022-07-23T14:36:03;18.20;75.40
43143;DHT22;28750;59.842;17.584;2022-07-23T14:38:30;18.10;98.20
43143;DHT22;28750;59.842;17.584;2022-07-23T14:40:57;18.00;92.60
43143;DHT22;28750;59.842;17.584;2022-07-23T14:43:24;18.00;99.90
43143;DHT22;28750;59.842;17.584;2022-07-23T14:45:51;18.10;49.60
43143;DHT22;28750;59.842;17.584;2022-07-23T14:48:18;18.10;99.90
43143;DHT22;28750;59.842;17.584;2022-07-23T14:50:45;18.10;99.90
43143;DHT22;28750;59.842;17.584;2022-07-23T14:53:12;17.90;9.60
43143;DHT22;28750;59.842;17.584;2022-07-23T14:55:39;18.00;18.70
43143;DHT22;28750;59.842;17.584;2022-07-23T14:58:06;18.00;1.00
43143;DHT22;28750;59.842;17.584;2022-07-23T15:00:33;18.00;1.00
43143;DHT22;28750;59.842;17.584;2022-07-23T15:03:00;18.00;1.00
43143;DHT22;28750;59.842;17.584;2022-07-23T15:05:27;18.10;1.00
43143;DHT22;28750;59.842;17.584;2022-07-23T15:07:54;18.00;1.00
43143;DHT22;28750;59.842;17.584;2022-07-23T15:10:21;18.00;1.00
43143;DHT22;28750;59.842;17.584;2022-07-23T15:12:49;18.00;5.30
43143;DHT22;28750;59.842;17.584;2022-07-23T15:15:16;18.00;63.50
43143;DHT22;28750;59.842;17.584;2022-07-23T15:17:44;17.80;60.00
43143;DHT22;28750;59.842;17.584;2022-07-23T15:20:11;17.80;10.50
43143;DHT22;28750;59.842;17.584;2022-07-23T15:22:38;17.80;99.90
43143;DHT22;28750;59.842;17.584;2022-07-23T15:25:05;17.70;92.10
43143;DHT22;28750;59.842;17.584;2022-07-23T15:27:32;17.70;1.00
43143;DHT22;28750;59.842;17.584;2022-07-23T15:29:59;17.70;11.80
43143;DHT22;28750;59.842;17.584;2022-07-23T15:32:26;17.70;1.00
43143;DHT22;28750;59.842;17.584;2022-07-23T15:34:54;17.70;15.50
43143;DHT22;28750;59.842;17.584;2022-07-23T15:37:22;17.60;56.60
43143;DHT22;28750;59.842;17.584;2022-07-23T15:39:50;17.50;1.00
43143;DHT22;28750;59.842;17.584;2022-07-23T15:42:17;17.50;1.00
43143;DHT22;28750;59.842;17.584;2022-07-23T15:44:44;17.50;9.70
43143;DHT22;28750;59.842;17.584;2022-07-23T15:47:14;17.50;83.00
43143;DHT22;28750;59.842;17.584;2022-07-23T15:49:42;17.50;46.10
43143;DHT22;28750;59.842;17.584;2022-07-23T15:52:09;17.50;95.20
43143;DHT22;28750;59.842;17.584;2022-07-23T15:54:37;17.50;1.00
43143;DHT22;28750;59.842;17.584;2022-07-23T15:57:04;17.30;99.90
43143;DHT22;28750;59.842;17.584;2022-07-23T15:59:32;17.40;1.00
43143;DHT22;28750;59.842;17.584;2022-07-23T16:01:58;17.40;1.00
43143;DHT22;28750;59.842;17.584;2022-07-23T16:04:25;17.50;1.00
43143;DHT22;28750;59.842;17.584;2022-07-23T16:06:52;17.40;1.00
43143;DHT22;28750;59.842;17.584;2022-07-23T16:09:19;17.40;1.00
43143;DHT22;28750;59.842;17.584;2022-07-23T16:11:46;17.40;41.10
43143;DHT22;28750;59.842;17.584;2022-07-23T16:14:13;17.30;1.00